Time;durP1;ratioP1;P1;durP2;ratioP2;P2;SDS_P1;SDS_P2;PMS_P1;PMS_P2;Temp;Humidity;BMP_temperature;BMP_pressure;BME280_temperature;BME280_humidity;BME280_pressure;Samples;Min_cycle;Max_cycle;Signal;HPM_P1;HPM_P2
2021/11/01 00:00:10;;;;;;;2.07;1.30;;;16.10;46.90;;;;;;5067043;28;20033;-82
2021/11/01 00:02:36;;;;;;;1.80;1.40;;;16.20;47.00;;;;;;5064977;28;20025;-82
2021/11/01 00:05:02;;;;;;;2.03;1.37;;;16.20;46.80;;;;;;5066065;28;20407;-82
2021/11/01 00:07:28;;;;;;;1.77;1.30;;;16.20;46.80;;;;;;5069978;28;20420;-82
2021/11/01 00:09:54;;;;;;;2.00;1.20;;;16.30;46.70;;;;;;5063901;28;20107;-82
2021/11/01 00:12:20;;;;;;;1.90;1.03;;;16.20;46.80;;;;;;5066452;28;20020;-82
2021/11/01 00:14:46;;;;;;;1.73;1.17;;;16.20;46.80;;;;;;5064858;28;20040;-82
2021/11/01 00:17:12;;;;;;;1.67;1.07;;;16.20;46.80;;;;;;5067048;28;20033;-82
2021/11/01 00:19:39;;;;;;;3.87;1.67;;;16.30;47.00;;;;;;5065767;28;20034;-82
2021/11/01 00:22:04;;;;;;;3.30;1.70;;;16.20;46.70;;;;;;5068724;28;20028;-82
2021/11/01 00:24:30;;;;;;;3.37;1.20;;;16.20;46.70;;;;;;5070926;28;20633;-82
2021/11/01 00:26:56;;;;;;;1.87;1.20;;;16.20;46.70;;;;;;5070963;28;20379;-82
2021/11/01 00:29:21;;;;;;;2.40;1.40;;;16.20;46.60;;;;;;5070203;28;20472;-82
2021/11/01 00:31:47;;;;;;;1.43;1.00;;;16.30;46.60;;;;;;5068312;28;20018;-82
2021/11/01 00:34:13;;;;;;;2.27;1.30;;;16.20;46.60;;;;;;5063042;28;20028;-82
2021/11/01 00:36:39;;;;;;;3.47;1.27;;;16.20;46.60;;;;;;5071645;28;20479;-82
2021/11/01 00:39:04;;;;;;;2.67;1.30;;;16.20;46.60;;;;;;5070673;28;20029;-81
2021/11/01 00:41:30;;;;;;;1.73;1.00;;;16.20;46.60;;;;;;5068426;28;20028;-82
2021/11/01 00:43:57;;;;;;;4.93;1.10;;;16.30;46.60;;;;;;5068177;28;20132;-82
2021/11/01 00:46:23;;;;;;;2.00;1.17;;;16.30;46.60;;;;;;5071092;28;20041;-82
2021/11/01 00:48:50;;;;;;;2.03;1.20;;;16.20;46.60;;;;;;5070998;28;20476;-82
2021/11/01 00:51:16;;;;;;;1.50;1.10;;;16.20;46.60;;;;;;5069059;28;20016;-82
2021/11/01 00:53:47;;;;;;;3.77;1.63;;;16.10;46.70;;;;;;5070614;28;20062;-82
2021/11/01 00:56:15;;;;;;;2.00;1.27;;;16.10;46.80;;;;;;5069498;28;20028;-82
2021/11/01 00:58:41;;;;;;;1.80;1.27;;;16.00;46.70;;;;;;5073725;28;20024;-82
2021/11/01 01:01:07;;;;;;;2.60;1.33;;;16.10;46.90;;;;;;5081947;28;20060;-82
2021/11/01 01:03:33;;;;;;;2.47;1.20;;;16.10;46.80;;;;;;5086065;28;20037;-82
2021/11/01 01:06:01;;;;;;;3.00;1.30;;;16.00;46.80;;;;;;5071132;28;20028;-82
2021/11/01 01:08:26;;;;;;;2.10;1.10;;;15.80;47.20;;;;;;5068415;28;20073;-82
2021/11/01 01:10:53;;;;;;;4.13;1.57;;;15.90;47.40;;;;;;5069359;28;20028;-82
2021/11/01 01:13:22;;;;;;;1.87;1.17;;;15.80;47.20;;;;;;5070392;28;20115;-82
2021/11/01 01:18:36;;;;;;;2.40;1.30;;;15.90;47.30;;;;;;5065668;28;20447;-82
2021/11/01 01:22:10;;;;;;;1.67;1.20;;;15.90;47.00;;;;;;5060717;28;20031;-82
2021/11/01 01:23:47;;;;;;;3.07;1.40;;;15.80;47.30;;;;;;5070013;28;20051;-82
2021/11/01 01:26:15;;;;;;;3.13;1.20;;;15.80;47.20;;;;;;5068465;28;20055;-82
2021/11/01 01:28:42;;;;;;;1.47;1.10;;;15.90;47.30;;;;;;5069560;28;20491;-82
2021/11/01 01:31:09;;;;;;;1.90;1.20;;;15.80;47.20;;;;;;5068301;28;20024;-82
2021/11/01 01:33:34;;;;;;;2.23;1.10;;;15.70;47.40;;;;;;5067914;28;20720;-82
2021/11/01 01:36:00;;;;;;;3.23;1.27;;;15.70;47.70;;;;;;5070686;28;20107;-82
2021/11/01 01:38:26;;;;;;;1.40;0.83;;;15.70;47.70;;;;;;5066992;28;20025;-82
2021/11/01 01:40:56;;;;;;;1.60;1.20;;;15.70;47.80;;;;;;5069152;28;20024;-82
2021/11/01 01:43:22;;;;;;;3.80;1.30;;;15.60;47.70;;;;;;5066022;28;20074;-82
2021/11/01 01:45:48;;;;;;;1.70;0.90;;;15.60;48.00;;;;;;5066003;28;20390;-82
2021/11/01 01:48:15;;;;;;;2.00;1.23;;;15.70;48.00;;;;;;5069670;28;20053;-82
2021/11/01 01:50:41;;;;;;;2.30;1.10;;;15.70;47.70;;;;;;5067353;28;20605;-82
2021/11/01 01:53:07;;;;;;;1.80;0.93;;;15.70;47.60;;;;;;5068273;28;20437;-82
2021/11/01 01:55:34;;;;;;;1.80;1.40;;;15.80;47.70;;;;;;5069154;28;20366;-82
2021/11/01 01:58:00;;;;;;;3.73;1.47;;;15.70;47.50;;;;;;5064969;28;20021;-82
2021/11/01 02:02:52;;;;;;;2.33;1.50;;;15.70;47.60;;;;;;5067895;28;20432;-82
2021/11/01 02:05:19;;;;;;;2.97;1.23;;;15.60;47.50;;;;;;5068306;28;20067;-82
2021/11/01 02:07:53;;;;;;;1.83;1.10;;;15.60;47.60;;;;;;5067589;28;20048;-83
2021/11/01 02:10:28;;;;;;;2.17;1.37;;;15.60;47.80;;;;;;5069271;28;20082;-82
2021/11/01 02:13:04;;;;;;;2.27;1.20;;;15.60;47.90;;;;;;5069135;28;20066;-82
2021/11/01 02:15:37;;;;;;;2.33;1.00;;;15.60;48.00;;;;;;5050150;28;20059;-82
2021/11/01 02:18:06;;;;;;;1.80;1.40;;;15.60;47.90;;;;;;5070073;28;20024;-82
2021/11/01 02:20:53;;;;;;;1.87;1.10;;;15.50;48.00;;;;;;5067792;28;20036;-82
2021/11/01 02:23:25;;;;;;;3.17;1.43;;;15.60;48.10;;;;;;5065338;28;20021;-82
2021/11/01 02:25:57;;;;;;;1.50;1.10;;;15.50;48.10;;;;;;5067509;28;20028;-82
2021/11/01 02:28:36;;;;;;;2.25;1.50;;;15.60;48.00;;;;;;5068625;28;20027;-82
2021/11/01 02:31:06;;;;;;;4.50;1.10;;;15.60;47.80;;;;;;5082814;28;20027;-82
2021/11/01 02:33:32;;;;;;;4.73;1.50;;;15.50;48.00;;;;;;5062633;28;20037;-82
2021/11/01 02:35:59;;;;;;;3.47;1.30;;;15.50;47.90;;;;;;5068269;28;20035;-82
2021/11/01 02:38:33;;;;;;;2.00;1.23;;;15.40;48.00;;;;;;5070873;28;20025;-81
2021/11/01 02:41:24;;;;;;;1.27;1.10;;;15.40;48.00;;;;;;5068218;28;20443;-81
2021/11/01 02:43:55;;;;;;;1.83;1.20;;;15.40;48.10;;;;;;5064098;28;20042;-82
2021/11/01 02:46:22;;;;;;;5.93;1.23;;;15.40;48.20;;;;;;5068857;28;20031;-82
2021/11/01 02:48:49;;;;;;;3.57;1.50;;;15.30;48.30;;;;;;5069556;28;20403;-82
2021/11/01 02:51:17;;;;;;;1.87;1.10;;;15.20;48.50;;;;;;5079261;28;20020;-82
2021/11/01 02:53:47;;;;;;;1.47;1.10;;;15.20;48.40;;;;;;5065912;28;20032;-82
2021/11/01 02:56:13;;;;;;;2.37;1.03;;;15.00;48.60;;;;;;5085299;28;20054;-81
2021/11/01 02:58:41;;;;;;;1.53;0.97;;;14.90;48.90;;;;;;5065794;28;20510;-82
2021/11/01 03:01:11;;;;;;;1.37;0.90;;;14.80;49.00;;;;;;5068356;28;20078;-82
2021/11/01 03:03:38;;;;;;;1.57;1.00;;;14.70;49.20;;;;;;5065766;28;20024;-82
2021/11/01 03:06:05;;;;;;;4.43;1.50;;;14.70;49.40;;;;;;5065348;28;20028;-82
2021/11/01 03:08:32;;;;;;;1.77;1.30;;;14.80;49.30;;;;;;5064619;28;20035;-82
2021/11/01 03:10:59;;;;;;;2.10;1.07;;;14.70;49.10;;;;;;5066386;28;20519;-82
2021/11/01 03:13:28;;;;;;;3.77;1.13;;;14.80;49.50;;;;;;5067771;28;20591;-82
2021/11/01 03:15:59;;;;;;;2.13;1.20;;;14.80;49.40;;;;;;5065081;28;20028;-81
2021/11/01 03:18:30;;;;;;;2.43;1.50;;;14.70;49.50;;;;;;5065552;28;20062;-82
2021/11/01 03:20:57;;;;;;;1.97;1.30;;;14.90;49.40;;;;;;5067480;28;20056;-82
2021/11/01 03:23:27;;;;;;;1.67;1.30;;;14.80;49.10;;;;;;5065377;28;20043;-82
2021/11/01 03:26:00;;;;;;;3.30;1.30;;;14.70;49.40;;;;;;5067153;28;20028;-82
2021/11/01 03:28:29;;;;;;;2.23;1.30;;;14.80;49.60;;;;;;5069171;28;20051;-82
2021/11/01 03:30:57;;;;;;;2.27;1.50;;;14.90;49.40;;;;;;5071856;28;20016;-82
2021/11/01 03:33:26;;;;;;;1.90;1.20;;;14.90;49.20;;;;;;5070822;28;20039;-82
2021/11/01 03:35:53;;;;;;;2.30;1.30;;;14.90;49.30;;;;;;5066928;28;20595;-82
2021/11/01 03:38:20;;;;;;;1.53;1.20;;;14.90;49.40;;;;;;5067023;28;20170;-82
2021/11/01 03:40:47;;;;;;;2.27;1.40;;;14.90;49.20;;;;;;5067135;28;20502;-82
2021/11/01 03:43:27;;;;;;;3.07;1.50;;;15.00;49.20;;;;;;5065566;28;20070;-81
2021/11/01 03:45:54;;;;;;;2.63;1.13;;;15.00;49.00;;;;;;5068272;28;20041;-82
2021/11/01 03:48:21;;;;;;;3.23;1.57;;;15.00;48.90;;;;;;5068552;28;20051;-82
2021/11/01 03:50:58;;;;;;;4.33;1.43;;;14.90;48.90;;;;;;5066778;28;20044;-82
2021/11/01 03:53:24;;;;;;;1.83;1.20;;;14.90;49.00;;;;;;5064861;28;20025;-81
2021/11/01 03:55:50;;;;;;;1.57;1.20;;;14.90;48.90;;;;;;5063514;28;20482;-82
2021/11/01 03:58:16;;;;;;;2.20;1.00;;;14.70;49.10;;;;;;5066344;28;20032;-81
2021/11/01 04:00:43;;;;;;;1.73;1.10;;;14.70;49.40;;;;;;5064819;28;20039;-82
2021/11/01 04:03:09;;;;;;;2.37;1.33;;;14.60;49.60;;;;;;5060103;28;21468;-81
2021/11/01 04:05:35;;;;;;;2.17;1.10;;;14.50;49.70;;;;;;5065370;28;20077;-82
2021/11/01 04:08:01;;;;;;;3.13;1.23;;;14.50;49.70;;;;;;5060019;28;20028;-82
2021/11/01 04:10:27;;;;;;;1.97;1.13;;;14.40;50.00;;;;;;5067262;28;20162;-81
2021/11/01 04:12:53;;;;;;;2.10;1.17;;;14.20;50.20;;;;;;5068088;28;20036;-82
2021/11/01 04:15:24;;;;;;;1.87;0.80;;;14.00;50.30;;;;;;5065630;28;20461;-81
2021/11/01 04:22:52;;;;;;;1.57;0.90;;;13.90;50.70;;;;;;5065894;28;20063;-82
2021/11/01 04:25:20;;;;;;;1.60;0.87;;;13.80;50.80;;;;;;5066760;28;20024;-82
2021/11/01 04:27:46;;;;;;;1.53;0.80;;;13.70;51.20;;;;;;5071616;28;20384;-82
2021/11/01 04:30:12;;;;;;;1.27;0.77;;;13.60;51.40;;;;;;5070855;28;20470;-82
2021/11/01 04:32:40;;;;;;;2.50;1.20;;;13.40;51.80;;;;;;5084639;28;20029;-81
2021/11/01 04:37:40;;;;;;;2.03;0.90;;;13.50;52.10;;;;;;5065774;28;20068;-81
2021/11/01 04:53:28;;;;;;;2.93;0.97;;;13.70;51.30;;;;;;5084533;28;20424;-82
2021/11/01 04:55:54;;;;;;;;;;;13.70;51.60;;;;;;5086396;28;20028;-82
2021/11/01 04:58:20;;;;;;;3.73;1.13;;;13.50;51.60;;;;;;5083442;28;19908;-82
2021/11/01 05:00:47;;;;;;;2.27;1.40;;;13.40;52.10;;;;;;5085983;28;20043;-81
2021/11/01 05:05:59;;;;;;;3.37;0.93;;;13.50;52.30;;;;;;5079563;28;20035;-81
2021/11/01 05:08:30;;;;;;;1.77;1.10;;;13.40;52.10;;;;;;5085199;28;20366;-82
2021/11/01 05:11:00;;;;;;;1.37;1.07;;;13.30;52.40;;;;;;5084927;28;20162;-82
2021/11/01 05:13:31;;;;;;;2.33;0.80;;;13.10;52.60;;;;;;5088787;28;20084;-82
2021/11/01 05:16:20;;;;;;;1.83;0.93;;;13.10;53.00;;;;;;5084771;28;20078;-82
2021/11/01 05:19:01;;;;;;;2.60;1.50;;;13.00;53.30;;;;;;5086345;28;20027;-82
2021/11/01 05:21:37;;;;;;;1.60;1.00;;;13.00;53.10;;;;;;5085239;28;20057;-82
2021/11/01 05:24:14;;;;;;;2.23;1.10;;;13.00;53.20;;;;;;5085809;28;20028;-82
2021/11/01 05:29:11;;;;;;;2.80;1.53;;;13.00;53.10;;;;;;5085553;28;20024;-82
2021/11/01 05:32:05;;;;;;;1.77;1.30;;;12.90;53.40;;;;;;5085719;28;20073;-82
2021/11/01 05:34:24;;;;;;;4.53;1.27;;;12.80;53.50;;;;;;5083752;28;20036;-81
2021/11/01 05:36:50;;;;;;;3.43;1.93;;;12.70;53.70;;;;;;5084682;28;20028;-82
2021/11/01 05:39:16;;;;;;;2.83;1.33;;;12.60;54.50;;;;;;5081755;28;20056;-81
2021/11/01 05:41:43;;;;;;;2.77;1.40;;;12.80;54.30;;;;;;5085084;28;20055;-82
2021/11/01 05:44:09;;;;;;;2.67;1.77;;;12.90;54.50;;;;;;5087784;28;20555;-82
2021/11/01 05:46:37;;;;;;;3.93;1.80;;;13.10;53.90;;;;;;5089680;28;20032;-82
2021/11/01 05:49:05;;;;;;;3.80;2.03;;;13.20;53.60;;;;;;5088292;28;20067;-82
2021/11/01 05:51:34;;;;;;;1.93;1.30;;;13.20;53.30;;;;;;5092694;28;20016;-82
2021/11/01 05:54:04;;;;;;;2.97;1.57;;;13.00;53.40;;;;;;5086774;28;20040;-82
2021/11/01 06:07:06;;;;;;;3.97;2.27;;;12.60;54.50;;;;;;5086973;28;20032;-82
2021/11/01 06:14:42;;;;;;;2.80;1.90;;;12.90;54.50;;;;;;5085386;28;20031;-82
2021/11/01 06:17:08;;;;;;;2.43;1.83;;;12.90;54.10;;;;;;5084703;28;20016;-82
2021/11/01 06:19:35;;;;;;;3.03;1.80;;;12.80;54.10;;;;;;5086878;28;20410;-82
2021/11/01 06:22:01;;;;;;;4.67;2.10;;;12.90;54.40;;;;;;5082206;28;20078;-81
2021/11/01 06:27:11;;;;;;;5.23;2.80;;;13.00;54.20;;;;;;5083560;28;20027;-81
2021/11/01 06:40:37;;;;;;;3.93;2.07;;;13.10;54.00;;;;;;5085269;28;20043;-81
2021/11/01 06:49:40;;;;;;;3.90;2.40;;;13.10;53.50;;;;;;5085464;28;20047;-81
2021/11/01 07:15:50;;;;;;;4.47;2.77;;;13.60;53.00;;;;;;5087003;28;20054;-81
2021/11/01 07:18:21;;;;;;;3.75;2.40;;;13.70;53.10;;;;;;5087630;28;20511;-82
2021/11/01 08:21:04;;;;;;;5.97;2.90;;;15.20;51.00;;;;;;5083515;28;20032;-82
2021/11/01 08:29:09;;;;;;;5.45;2.97;;;15.90;49.90;;;;;;5084591;28;20367;-81
2021/11/01 09:04:19;;;;;;;7.18;3.25;;;17.30;48.10;;;;;;5083936;28;20043;-82
2021/11/01 09:07:41;;;;;;;4.50;3.75;;;17.50;47.90;;;;;;5084547;28;20028;-82
2021/11/01 09:26:08;;;;;;;5.05;2.47;;;18.50;45.90;;;;;;5086813;28;20074;-82
2021/11/01 09:28:43;;;;;;;3.60;2.15;;;18.50;45.50;;;;;;5082694;28;20031;-82
2021/11/01 09:36:46;;;;;;;7.45;3.55;;;18.50;45.40;;;;;;5087945;28;20178;-82
2021/11/01 09:41:46;;;;;;;7.40;3.08;;;18.60;46.10;;;;;;5086660;28;20049;-82
2021/11/01 09:44:15;;;;;;;7.15;2.70;;;18.70;45.70;;;;;;5087100;28;20153;-82
2021/11/01 09:46:41;;;;;;;7.13;2.83;;;18.70;45.70;;;;;;5087536;28;20020;-82
2021/11/01 09:49:16;;;;;;;4.53;2.80;;;18.60;45.60;;;;;;5087393;28;20054;-82
2021/11/01 09:51:46;;;;;;;4.40;2.90;;;18.50;45.60;;;;;;5088048;28;20490;-82
2021/11/01 09:54:20;;;;;;;3.92;2.85;;;18.70;46.00;;;;;;5087531;28;20390;-82
2021/11/01 09:56:58;;;;;;;4.30;2.80;;;18.50;45.30;;;;;;5089022;28;20526;-82
2021/11/01 09:59:27;;;;;;;4.90;2.80;;;18.40;45.40;;;;;;5083905;28;20526;-82
2021/11/01 10:01:54;;;;;;;5.75;2.88;;;18.40;45.50;;;;;;5090456;28;20032;-82
2021/11/01 10:04:23;;;;;;;5.88;3.35;;;18.30;45.60;;;;;;5090217;28;20483;-82
2021/11/01 10:07:15;;;;;;;3.53;2.25;;;18.30;45.80;;;;;;5091854;28;20035;-82
2021/11/01 10:09:42;;;;;;;4.05;2.40;;;18.20;45.70;;;;;;5089405;28;20455;-82
2021/11/01 10:12:32;;;;;;;4.00;2.40;;;18.20;45.80;;;;;;5088982;28;20429;-82
2021/11/01 10:18:05;;;;;;;3.70;2.15;;;18.10;45.70;;;;;;5096486;28;20100;-82
2021/11/01 10:20:33;;;;;;;2.53;2.00;;;18.00;45.60;;;;;;5089176;28;20470;-82
2021/11/01 10:22:59;;;;;;;6.15;2.65;;;18.00;45.90;;;;;;5088937;28;20379;-82
2021/11/01 10:25:25;;;;;;;5.15;2.63;;;17.90;46.00;;;;;;5087610;28;20383;-82
2021/11/01 10:27:57;;;;;;;3.13;2.63;;;17.80;46.30;;;;;;5091328;28;20548;-82
2021/11/01 10:30:28;;;;;;;3.10;2.10;;;17.80;46.60;;;;;;5085309;28;20096;-82
2021/11/01 10:32:55;;;;;;;4.63;2.50;;;17.80;46.90;;;;;;5085185;28;20392;-82
2021/11/01 10:35:31;;;;;;;3.45;2.60;;;17.70;47.20;;;;;;5087919;28;20020;-82
2021/11/01 10:38:13;;;;;;;3.63;2.63;;;17.80;47.60;;;;;;5084068;28;20030;-82
2021/11/01 10:40:54;;;;;;;3.22;2.35;;;17.80;47.90;;;;;;5090181;28;20344;-82
2021/11/01 10:43:43;;;;;;;2.92;2.28;;;17.80;48.10;;;;;;5084092;28;20036;-82
2021/11/01 11:11:09;;;;;;;3.65;2.35;;;17.50;51.90;;;;;;5082381;28;20035;-82
2021/11/01 11:13:43;;;;;;;5.90;2.80;;;17.40;52.40;;;;;;5097534;28;20555;-82
2021/11/01 11:16:10;;;;;;;4.63;2.67;;;17.40;52.70;;;;;;5089398;28;20627;-82
2021/11/01 11:18:57;;;;;;;4.43;2.53;;;17.40;52.90;;;;;;5083264;28;20039;-82
2021/11/01 11:21:44;;;;;;;2.85;2.33;;;17.40;53.10;;;;;;5084862;28;20020;-82
2021/11/01 11:27:32;;;;;;;3.38;2.60;;;17.30;53.70;;;;;;5020894;28;20526;-82
2021/11/01 11:49:18;;;;;;;36.55;25.10;;;17.00;55.90;;;;;;5085366;28;20043;-82
2021/11/01 11:51:58;;;;;;;10.48;6.47;;;16.90;56.10;;;;;;5080926;28;20052;-82
2021/11/01 11:54:36;;;;;;;4.53;3.03;;;17.00;56.40;;;;;;5083950;28;20039;-82
2021/11/01 11:57:04;;;;;;;15.90;14.30;;;16.90;56.50;;;;;;5084523;28;20039;-82
2021/11/01 11:59:36;;;;;;;9.95;7.97;;;16.80;56.50;;;;;;5087725;28;20093;-82
2021/11/01 12:02:10;;;;;;;9.65;7.70;;;16.80;56.60;;;;;;5088436;28;20059;-82
2021/11/01 12:04:42;;;;;;;6.95;3.13;;;16.80;56.70;;;;;;5085622;28;20024;-82
2021/11/01 12:07:12;;;;;;;6.22;3.20;;;16.80;56.70;;;;;;5083484;28;20534;-82
2021/11/01 12:10:02;;;;;;;6.70;3.90;;;16.70;56.80;;;;;;5086812;28;20047;-82
2021/11/01 12:17:50;;;;;;;29.70;13.80;;;16.50;56.70;;;;;;5084555;28;20085;-82
2021/11/01 12:20:20;;;;;;;15.23;8.55;;;16.40;56.70;;;;;;5090759;28;20073;-82
2021/11/01 12:22:49;;;;;;;29.83;12.57;;;16.40;56.70;;;;;;5091897;28;20012;-82
2021/11/01 12:25:18;;;;;;;1.57;0.90;;;16.30;56.80;;;;;;5087955;28;20024;-82
2021/11/01 12:27:55;;;;;;;20.30;6.83;;;16.30;56.60;;;;;;5088099;28;20035;-82
2021/11/01 12:30:25;;;;;;;41.57;11.00;;;16.10;57.10;;;;;;5089367;28;20029;-82
2021/11/01 12:32:51;;;;;;;46.97;11.67;;;16.10;57.70;;;;;;5090799;28;20039;-82
2021/11/01 12:35:32;;;;;;;16.30;4.50;;;16.00;58.20;;;;;;5088809;28;20024;-82
2021/11/01 12:38:07;;;;;;;9.60;2.30;;;15.90;58.70;;;;;;5091802;28;20663;-82
2021/11/01 12:41:06;;;;;;;28.43;7.10;;;15.90;59.10;;;;;;5089529;28;20035;-81
2021/11/01 12:44:49;;;;;;;19.23;5.77;;;15.70;59.70;;;;;;5093652;28;20133;-82
2021/11/01 12:49:35;;;;;;;12.13;4.53;;;15.70;60.00;;;;;;5090363;28;20016;-81
2021/11/01 12:57:28;;;;;;;19.30;6.40;;;15.50;60.50;;;;;;5087852;28;20524;-81
2021/11/01 12:59:54;;;;;;;18.80;6.60;;;15.40;61.00;;;;;;5082459;28;20595;-82
2021/11/01 13:02:30;;;;;;;26.87;7.83;;;15.40;61.40;;;;;;5087865;28;20039;-82
2021/11/01 13:04:58;;;;;;;38.40;12.93;;;15.30;61.80;;;;;;5089742;28;20455;-82
2021/11/01 13:10:47;;;;;;;8.25;3.05;;;15.20;61.60;;;;;;5092081;28;20531;-81
2021/11/01 13:18:37;;;;;;;36.37;13.07;;;15.20;62.30;;;;;;5089392;28;20070;-82
2021/11/01 13:21:18;;;;;;;11.67;5.03;;;15.10;62.50;;;;;;5089264;28;20028;-82
2021/11/01 13:24:03;;;;;;;11.33;5.97;;;15.10;63.50;;;;;;5089152;28;20107;-82
2021/11/01 13:27:28;;;;;;;15.37;3.63;;;15.00;63.60;;;;;;5089377;28;20024;-82
2021/11/01 13:37:35;;;;;;;5.97;2.77;;;14.80;63.80;;;;;;5070729;28;20391;-81
2021/11/01 13:40:07;;;;;;;10.60;4.13;;;14.80;64.30;;;;;;5080884;28;20020;-82
2021/11/01 13:42:33;;;;;;;9.43;3.30;;;14.80;64.20;;;;;;5091224;28;20036;-82
2021/11/01 13:45:07;;;;;;;8.37;5.17;;;14.80;64.10;;;;;;5087105;28;20056;-81
2021/11/01 13:47:47;;;;;;;3.27;2.07;;;14.70;64.60;;;;;;5092014;28;20442;-82
2021/11/01 13:50:17;;;;;;;3.73;2.00;;;14.70;64.70;;;;;;5090833;28;20602;-82
2021/11/01 13:52:53;;;;;;;9.03;4.17;;;14.70;64.80;;;;;;5080374;28;20027;-82
2021/11/01 13:55:32;;;;;;;5.20;1.20;;;14.60;65.10;;;;;;5087160;28;20058;-82
2021/11/01 13:58:07;;;;;;;10.43;4.73;;;14.60;65.20;;;;;;5088930;28;20090;-82
2021/11/01 14:00:46;;;;;;;6.00;3.43;;;14.60;65.10;;;;;;5092637;28;20036;-82
2021/11/01 14:16:29;;;;;;;6.83;2.70;;;14.50;65.80;;;;;;5089333;28;20111;-82
2021/11/01 14:35:29;;;;;;;18.97;9.77;;;14.40;66.60;;;;;;5088020;28;20525;-82
2021/11/01 16:19:41;;;;;;;55.00;32.57;;;13.70;69.30;;;;;;5072503;28;20028;-82
2021/11/01 16:22:08;;;;;;;31.67;18.70;;;13.70;69.50;;;;;;5064612;28;20040;-81
2021/11/01 16:24:35;;;;;;;23.00;14.10;;;13.70;69.40;;;;;;5073167;28;20070;-81
2021/11/01 16:27:02;;;;;;;9.60;6.80;;;13.70;69.70;;;;;;5070802;28;20038;-82
2021/11/01 16:32:33;;;;;;;13.03;9.13;;;13.70;69.90;;;;;;5082784;28;20028;-82
2021/11/01 16:35:05;;;;;;;6.47;3.73;;;13.60;69.70;;;;;;5091725;28;20020;-82
2021/11/01 16:37:49;;;;;;;12.73;7.53;;;13.60;69.80;;;;;;5084477;28;20094;-82
2021/11/01 16:40:15;;;;;;;13.50;9.93;;;13.60;69.80;;;;;;5088248;28;20502;-82
2021/11/01 16:42:46;;;;;;;13.80;8.50;;;13.70;69.70;;;;;;5098486;28;20112;-82
2021/11/01 16:45:27;;;;;;;12.33;7.17;;;13.60;69.90;;;;;;5071466;28;20041;-82
2021/11/01 16:47:52;;;;;;;10.63;7.47;;;13.60;70.10;;;;;;5048843;28;20029;-82
2021/11/01 16:50:18;;;;;;;9.73;6.40;;;13.60;70.00;;;;;;5074093;28;20028;-81
2021/11/01 16:52:47;;;;;;;16.23;11.60;;;13.60;70.00;;;;;;5066460;28;20021;-81
2021/11/01 16:55:18;;;;;;;14.67;11.57;;;13.60;70.20;;;;;;5069345;28;20036;-82
2021/11/01 16:57:48;;;;;;;13.77;11.20;;;13.60;70.50;;;;;;5068721;28;20025;-82
2021/11/01 17:00:26;;;;;;;7.70;5.37;;;13.60;70.60;;;;;;5069995;28;20025;-81
2021/11/01 17:09:16;;;;;;;5.33;3.00;;;13.40;71.00;;;;;;4988492;28;20022;-82
2021/11/01 17:23:10;;;;;;;6.90;4.70;;;13.40;70.30;;;;;;5068600;28;20513;-82
2021/11/01 17:25:56;;;;;;;5.50;3.63;;;13.30;70.40;;;;;;5066569;28;20029;-81
2021/11/01 17:28:38;;;;;;;5.77;2.43;;;13.40;70.20;;;;;;5052983;28;20105;-82
2021/11/01 17:36:50;;;;;;;4.13;1.70;;;13.30;69.70;;;;;;5067018;28;20043;-81
2021/11/01 18:54:22;;;;;;;1.97;1.03;;;12.40;66.90;;;;;;5072202;28;20020;-82
2021/11/01 18:56:57;;;;;;;2.23;0.87;;;12.30;67.20;;;;;;5071023;28;20028;-82
2021/11/01 18:59:25;;;;;;;3.27;0.80;;;12.30;67.50;;;;;;5071127;28;20031;-82
2021/11/01 19:04:49;;;;;;;4.57;1.27;;;12.30;67.70;;;;;;5073484;28;20047;-82
2021/11/01 19:10:10;;;;;;;1.80;0.90;;;12.30;67.30;;;;;;5066344;28;20020;-82
2021/11/01 20:04:50;;;;;;;1.73;0.87;;;11.20;70.90;;;;;;5089541;28;20039;-80
2021/11/01 20:15:32;;;;;;;2.43;0.50;;;10.90;71.20;;;;;;5092240;28;20107;-81
2021/11/01 21:25:03;;;;;;;1.00;0.40;;;10.30;70.70;;;;;;5091956;28;20572;-80
2021/11/01 21:27:30;;;;;;;0.53;0.40;;;10.30;70.60;;;;;;5075982;28;20096;-80
2021/11/01 21:29:56;;;;;;;1.80;0.57;;;10.30;70.30;;;;;;5074123;28;20024;-80
2021/11/01 21:32:22;;;;;;;1.40;0.40;;;10.20;70.30;;;;;;5089542;28;20016;-80
2021/11/01 21:34:59;;;;;;;1.57;0.50;;;10.20;71.30;;;;;;5074114;28;20536;-80
2021/11/01 21:37:26;;;;;;;1.87;0.80;;;10.20;70.80;;;;;;5071837;28;20524;-80
2021/11/01 21:39:53;;;;;;;1.80;0.70;;;10.20;70.70;;;;;;5072783;28;20370;-80
2021/11/01 21:42:19;;;;;;;1.67;0.60;;;10.20;70.30;;;;;;5089082;28;20476;-80
2021/11/01 21:44:45;;;;;;;2.67;1.10;;;10.10;70.50;;;;;;5087631;28;20115;-80
2021/11/01 21:47:11;;;;;;;3.77;1.47;;;10.10;70.70;;;;;;5090873;28;20049;-80
2021/11/01 21:49:37;;;;;;;1.97;0.80;;;10.10;70.80;;;;;;5090572;28;20032;-80
2021/11/01 21:52:04;;;;;;;2.00;0.40;;;10.20;70.70;;;;;;5073014;28;20516;-80
2021/11/01 21:54:32;;;;;;;0.70;0.30;;;10.20;70.50;;;;;;5077004;28;20024;-80
2021/11/01 22:18:13;;;;;;;1.50;0.70;;;10.10;70.40;;;;;;5091779;28;20028;-80
2021/11/01 22:20:46;;;;;;;1.77;0.90;;;10.00;70.50;;;;;;5074435;28;20074;-80
2021/11/01 22:23:16;;;;;;;1.63;0.70;;;10.10;70.40;;;;;;5070195;28;20020;-80
2021/11/01 22:26:09;;;;;;;1.40;0.70;;;10.00;70.50;;;;;;5071905;28;20032;-80
2021/11/01 22:39:21;;;;;;;1.87;0.60;;;9.80;71.10;;;;;;5089773;28;20088;-80
2021/11/01 22:47:10;;;;;;;0.70;0.40;;;9.80;70.90;;;;;;5092072;28;20036;-80
2021/11/01 22:57:49;;;;;;;1.33;0.73;;;9.80;70.70;;;;;;5088242;28;20039;-80
2021/11/01 23:00:22;;;;;;;1.67;0.60;;;9.80;70.70;;;;;;5088430;28;20028;-80
2021/11/01 23:02:59;;;;;;;1.67;0.60;;;9.80;70.80;;;;;;5089491;28;20023;-80
2021/11/01 23:32:43;;;;;;;2.17;0.40;;;9.60;70.60;;;;;;5086094;28;20078;-80
2021/11/01 23:35:09;;;;;;;0.50;0.30;;;9.60;70.70;;;;;;5088933;28;20028;-80
2021/11/01 23:37:34;;;;;;;0.67;0.40;;;9.60;70.60;;;;;;5093512;28;20040;-80
2021/11/01 23:40:00;;;;;;;0.73;0.30;;;9.70;70.50;;;;;;5087631;28;20024;-80
2021/11/01 23:42:26;;;;;;;1.23;0.20;;;9.70;70.30;;;;;;5067260;28;20032;-80
2021/11/01 23:44:54;;;;;;;0.20;0.20;;;9.60;70.40;;;;;;5069877;28;20427;-80
2021/11/01 23:47:22;;;;;;;0.87;0.50;;;9.60;70.50;;;;;;5072606;28;20422;-80
2021/11/01 23:49:48;;;;;;;1.53;1.00;;;9.60;70.50;;;;;;5070664;28;20028;-80
2021/11/01 23:52:15;;;;;;;0.63;0.30;;;9.60;70.50;;;;;;5070201;28;20024;-80
2021/11/01 23:54:45;;;;;;;1.27;0.30;;;9.60;70.40;;;;;;5090267;28;20023;-80
2021/11/01 23:57:14;;;;;;;0.77;0.30;;;9.60;70.10;;;;;;5080696;28;20498;-80
2021/11/01 23:59:41;;;;;;;1.97;0.30;;;9.60;70.00;;;;;;5066935;28;20036;-80
